sensor_id;sensor_type;location;lat;lon;timestamp;P1;durP1;ratioP1;P2;durP2;ratioP2
58876;SDS011;44659;47.002;9.536;2022-09-09T00:00:06;1.77;;;0.87;;
58876;SDS011;44659;47.002;9.536;2022-09-09T00:02:31;1.60;;;0.90;;
58876;SDS011;44659;47.002;9.536;2022-09-09T00:05:04;2.63;;;0.98;;
58876;SDS011;44659;47.002;9.536;2022-09-09T00:07:40;4.15;;;1.20;;
58876;SDS011;44659;47.002;9.536;2022-09-09T00:12:47;5.45;;;1.30;;
58876;SDS011;44659;47.002;9.536;2022-09-09T00:15:19;4.32;;;1.17;;
58876;SDS011;44659;47.002;9.536;2022-09-09T00:20:21;3.58;;;1.27;;
58876;SDS011;44659;47.002;9.536;2022-09-09T00:23:34;2.25;;;1.00;;
58876;SDS011;44659;47.002;9.536;2022-09-09T00:25:42;3.13;;;1.10;;
58876;SDS011;44659;47.002;9.536;2022-09-09T00:28:13;2.88;;;0.90;;
58876;SDS011;44659;47.002;9.536;2022-09-09T00:30:42;4.68;;;1.30;;
58876;SDS011;44659;47.002;9.536;2022-09-09T00:33:10;2.60;;;1.20;;
58876;SDS011;44659;47.002;9.536;2022-09-09T00:35:40;3.53;;;1.00;;
58876;SDS011;44659;47.002;9.536;2022-09-09T00:38:10;1.52;;;0.80;;
58876;SDS011;44659;47.002;9.536;2022-09-09T00:40:38;2.08;;;0.98;;
58876;SDS011;44659;47.002;9.536;2022-09-09T00:54:00;3.58;;;1.00;;
58876;SDS011;44659;47.002;9.536;2022-09-09T00:56:32;2.67;;;0.95;;
58876;SDS011;44659;47.002;9.536;2022-09-09T00:59:04;3.20;;;1.00;;
58876;SDS011;44659;47.002;9.536;2022-09-09T01:01:32;2.53;;;0.88;;
58876;SDS011;44659;47.002;9.536;2022-09-09T01:03:57;3.03;;;0.83;;
58876;SDS011;44659;47.002;9.536;2022-09-09T01:06:31;2.25;;;0.73;;
58876;SDS011;44659;47.002;9.536;2022-09-09T01:17:04;2.10;;;1.00;;
58876;SDS011;44659;47.002;9.536;2022-09-09T01:19:37;2.45;;;1.10;;
58876;SDS011;44659;47.002;9.536;2022-09-09T01:22:11;2.25;;;0.98;;
58876;SDS011;44659;47.002;9.536;2022-09-09T01:24:53;2.88;;;0.75;;
58876;SDS011;44659;47.002;9.536;2022-09-09T01:27:19;1.48;;;0.80;;
58876;SDS011;44659;47.002;9.536;2022-09-09T01:29:45;4.35;;;0.90;;
58876;SDS011;44659;47.002;9.536;2022-09-09T01:34:55;2.97;;;0.70;;
58876;SDS011;44659;47.002;9.536;2022-09-09T01:37:20;2.43;;;0.90;;
58876;SDS011;44659;47.002;9.536;2022-09-09T01:39:45;3.73;;;0.80;;
58876;SDS011;44659;47.002;9.536;2022-09-09T01:42:12;5.07;;;0.82;;
58876;SDS011;44659;47.002;9.536;2022-09-09T01:44:38;4.22;;;0.90;;
58876;SDS011;44659;47.002;9.536;2022-09-09T01:47:03;2.47;;;0.80;;
58876;SDS011;44659;47.002;9.536;2022-09-09T01:49:29;3.20;;;0.68;;
58876;SDS011;44659;47.002;9.536;2022-09-09T01:51:55;5.23;;;0.90;;
58876;SDS011;44659;47.002;9.536;2022-09-09T01:54:21;3.20;;;0.95;;
58876;SDS011;44659;47.002;9.536;2022-09-09T02:04:49;5.78;;;1.00;;
58876;SDS011;44659;47.002;9.536;2022-09-09T02:07:28;4.53;;;1.10;;
58876;SDS011;44659;47.002;9.536;2022-09-09T02:10:08;2.10;;;0.80;;
58876;SDS011;44659;47.002;9.536;2022-09-09T02:12:34;2.58;;;0.80;;
58876;SDS011;44659;47.002;9.536;2022-09-09T02:15:02;2.55;;;0.73;;
58876;SDS011;44659;47.002;9.536;2022-09-09T02:17:30;1.40;;;0.85;;
58876;SDS011;44659;47.002;9.536;2022-09-09T02:20:10;1.85;;;0.80;;
58876;SDS011;44659;47.002;9.536;2022-09-09T02:22:37;1.65;;;0.68;;
58876;SDS011;44659;47.002;9.536;2022-09-09T02:25:05;2.40;;;0.80;;
58876;SDS011;44659;47.002;9.536;2022-09-09T02:27:31;3.30;;;0.70;;
58876;SDS011;44659;47.002;9.536;2022-09-09T02:29:56;1.25;;;0.75;;
58876;SDS011;44659;47.002;9.536;2022-09-09T02:32:23;2.47;;;0.85;;
58876;SDS011;44659;47.002;9.536;2022-09-09T02:34:50;4.85;;;0.90;;
58876;SDS011;44659;47.002;9.536;2022-09-09T02:37:20;1.38;;;0.77;;
58876;SDS011;44659;47.002;9.536;2022-09-09T02:39:47;3.25;;;1.05;;
58876;SDS011;44659;47.002;9.536;2022-09-09T02:42:13;4.77;;;0.90;;
58876;SDS011;44659;47.002;9.536;2022-09-09T02:44:39;3.58;;;1.15;;
58876;SDS011;44659;47.002;9.536;2022-09-09T02:50:03;1.80;;;0.90;;
58876;SDS011;44659;47.002;9.536;2022-09-09T02:54:57;3.80;;;1.05;;
58876;SDS011;44659;47.002;9.536;2022-09-09T02:57:25;8.23;;;1.70;;
58876;SDS011;44659;47.002;9.536;2022-09-09T02:59:52;1.52;;;0.98;;
58876;SDS011;44659;47.002;9.536;2022-09-09T03:02:18;3.90;;;1.00;;
58876;SDS011;44659;47.002;9.536;2022-09-09T03:04:43;3.47;;;1.25;;
58876;SDS011;44659;47.002;9.536;2022-09-09T03:07:09;2.72;;;1.17;;
58876;SDS011;44659;47.002;9.536;2022-09-09T03:09:34;3.55;;;1.23;;
58876;SDS011;44659;47.002;9.536;2022-09-09T03:12:00;3.15;;;1.38;;
58876;SDS011;44659;47.002;9.536;2022-09-09T03:14:25;1.65;;;0.90;;
58876;SDS011;44659;47.002;9.536;2022-09-09T03:16:51;4.43;;;1.47;;
58876;SDS011;44659;47.002;9.536;2022-09-09T03:19:16;2.35;;;1.00;;
58876;SDS011;44659;47.002;9.536;2022-09-09T03:21:41;7.53;;;1.70;;
58876;SDS011;44659;47.002;9.536;2022-09-09T03:24:06;7.47;;;1.20;;
58876;SDS011;44659;47.002;9.536;2022-09-09T03:26:32;2.70;;;1.20;;
58876;SDS011;44659;47.002;9.536;2022-09-09T03:28:57;5.75;;;1.10;;
58876;SDS011;44659;47.002;9.536;2022-09-09T03:31:25;1.27;;;0.85;;
58876;SDS011;44659;47.002;9.536;2022-09-09T03:33:50;3.90;;;1.10;;
58876;SDS011;44659;47.002;9.536;2022-09-09T03:36:16;6.50;;;1.13;;
58876;SDS011;44659;47.002;9.536;2022-09-09T03:38:42;3.28;;;1.27;;
58876;SDS011;44659;47.002;9.536;2022-09-09T03:41:07;8.30;;;1.20;;
58876;SDS011;44659;47.002;9.536;2022-09-09T03:43:33;5.03;;;1.10;;
58876;SDS011;44659;47.002;9.536;2022-09-09T03:45:58;3.38;;;1.10;;
58876;SDS011;44659;47.002;9.536;2022-09-09T03:48:23;3.63;;;1.00;;
58876;SDS011;44659;47.002;9.536;2022-09-09T03:50:50;7.57;;;1.35;;
58876;SDS011;44659;47.002;9.536;2022-09-09T03:53:16;4.35;;;1.23;;
58876;SDS011;44659;47.002;9.536;2022-09-09T03:55:45;3.42;;;1.10;;
58876;SDS011;44659;47.002;9.536;2022-09-09T03:58:10;6.53;;;1.30;;
58876;SDS011;44659;47.002;9.536;2022-09-09T04:00:36;4.32;;;1.05;;
58876;SDS011;44659;47.002;9.536;2022-09-09T04:03:01;2.47;;;1.03;;
58876;SDS011;44659;47.002;9.536;2022-09-09T04:05:26;7.03;;;1.20;;
58876;SDS011;44659;47.002;9.536;2022-09-09T04:07:52;3.00;;;1.10;;
58876;SDS011;44659;47.002;9.536;2022-09-09T04:10:17;1.85;;;1.00;;
58876;SDS011;44659;47.002;9.536;2022-09-09T04:12:42;2.23;;;1.20;;
58876;SDS011;44659;47.002;9.536;2022-09-09T04:15:08;4.68;;;0.88;;
58876;SDS011;44659;47.002;9.536;2022-09-09T04:17:33;3.70;;;0.90;;
58876;SDS011;44659;47.002;9.536;2022-09-09T04:19:58;2.33;;;1.00;;
58876;SDS011;44659;47.002;9.536;2022-09-09T04:22:23;2.93;;;0.90;;
58876;SDS011;44659;47.002;9.536;2022-09-09T04:24:49;3.97;;;1.40;;
58876;SDS011;44659;47.002;9.536;2022-09-09T04:27:14;1.73;;;0.90;;
58876;SDS011;44659;47.002;9.536;2022-09-09T04:29:39;3.72;;;0.93;;
58876;SDS011;44659;47.002;9.536;2022-09-09T04:32:04;1.97;;;1.00;;
58876;SDS011;44659;47.002;9.536;2022-09-09T04:34:30;4.45;;;1.73;;
58876;SDS011;44659;47.002;9.536;2022-09-09T04:39:39;3.70;;;1.10;;
58876;SDS011;44659;47.002;9.536;2022-09-09T04:42:04;6.68;;;1.35;;
58876;SDS011;44659;47.002;9.536;2022-09-09T04:44:29;2.80;;;1.10;;
58876;SDS011;44659;47.002;9.536;2022-09-09T04:46:55;6.00;;;1.20;;
58876;SDS011;44659;47.002;9.536;2022-09-09T04:49:20;4.68;;;1.10;;
58876;SDS011;44659;47.002;9.536;2022-09-09T04:51:45;4.10;;;1.03;;
58876;SDS011;44659;47.002;9.536;2022-09-09T04:54:11;3.03;;;1.23;;
58876;SDS011;44659;47.002;9.536;2022-09-09T04:56:40;2.13;;;1.10;;
58876;SDS011;44659;47.002;9.536;2022-09-09T04:59:27;3.80;;;1.10;;
58876;SDS011;44659;47.002;9.536;2022-09-09T05:01:52;2.63;;;1.00;;
58876;SDS011;44659;47.002;9.536;2022-09-09T05:04:19;4.65;;;1.20;;
58876;SDS011;44659;47.002;9.536;2022-09-09T05:06:53;3.33;;;1.10;;
58876;SDS011;44659;47.002;9.536;2022-09-09T05:09:19;4.05;;;1.27;;
58876;SDS011;44659;47.002;9.536;2022-09-09T05:11:44;2.17;;;1.15;;
58876;SDS011;44659;47.002;9.536;2022-09-09T05:14:09;5.15;;;1.10;;
58876;SDS011;44659;47.002;9.536;2022-09-09T05:16:36;5.47;;;1.10;;
58876;SDS011;44659;47.002;9.536;2022-09-09T05:19:01;3.70;;;1.20;;
58876;SDS011;44659;47.002;9.536;2022-09-09T05:21:28;2.95;;;1.17;;
58876;SDS011;44659;47.002;9.536;2022-09-09T05:23:54;4.97;;;1.10;;
58876;SDS011;44659;47.002;9.536;2022-09-09T05:26:20;3.90;;;0.90;;
58876;SDS011;44659;47.002;9.536;2022-09-09T05:28:45;11.05;;;1.50;;
58876;SDS011;44659;47.002;9.536;2022-09-09T05:39:22;5.43;;;1.02;;
58876;SDS011;44659;47.002;9.536;2022-09-09T05:42:33;2.70;;;1.10;;
58876;SDS011;44659;47.002;9.536;2022-09-09T05:48:24;3.70;;;1.15;;
58876;SDS011;44659;47.002;9.536;2022-09-09T05:50:52;2.95;;;1.00;;
58876;SDS011;44659;47.002;9.536;2022-09-09T05:53:18;3.88;;;1.17;;
58876;SDS011;44659;47.002;9.536;2022-09-09T05:55:48;2.30;;;1.00;;
58876;SDS011;44659;47.002;9.536;2022-09-09T05:58:19;2.60;;;1.27;;
58876;SDS011;44659;47.002;9.536;2022-09-09T06:01:00;2.83;;;1.10;;
58876;SDS011;44659;47.002;9.536;2022-09-09T06:03:34;4.20;;;1.20;;
58876;SDS011;44659;47.002;9.536;2022-09-09T06:06:32;6.40;;;1.50;;
58876;SDS011;44659;47.002;9.536;2022-09-09T06:09:05;7.75;;;1.83;;
58876;SDS011;44659;47.002;9.536;2022-09-09T06:15:31;3.90;;;1.25;;
58876;SDS011;44659;47.002;9.536;2022-09-09T06:18:21;2.70;;;1.20;;
58876;SDS011;44659;47.002;9.536;2022-09-09T06:21:23;4.65;;;1.13;;
58876;SDS011;44659;47.002;9.536;2022-09-09T06:24:19;6.85;;;1.80;;
58876;SDS011;44659;47.002;9.536;2022-09-09T06:26:51;5.55;;;1.20;;
58876;SDS011;44659;47.002;9.536;2022-09-09T06:30:27;6.32;;;1.65;;
58876;SDS011;44659;47.002;9.536;2022-09-09T06:32:54;3.85;;;1.40;;
58876;SDS011;44659;47.002;9.536;2022-09-09T06:35:23;10.93;;;1.40;;
58876;SDS011;44659;47.002;9.536;2022-09-09T06:37:49;3.80;;;1.25;;
58876;SDS011;44659;47.002;9.536;2022-09-09T06:40:17;4.55;;;1.10;;
58876;SDS011;44659;47.002;9.536;2022-09-09T06:42:46;6.60;;;1.40;;
58876;SDS011;44659;47.002;9.536;2022-09-09T06:45:15;5.45;;;1.20;;
58876;SDS011;44659;47.002;9.536;2022-09-09T06:47:44;6.80;;;1.30;;
58876;SDS011;44659;47.002;9.536;2022-09-09T06:56:24;6.93;;;1.50;;
58876;SDS011;44659;47.002;9.536;2022-09-09T06:58:51;3.55;;;1.10;;
58876;SDS011;44659;47.002;9.536;2022-09-09T07:01:24;6.43;;;1.27;;
58876;SDS011;44659;47.002;9.536;2022-09-09T07:03:50;4.82;;;1.42;;
58876;SDS011;44659;47.002;9.536;2022-09-09T07:06:19;3.40;;;1.15;;
58876;SDS011;44659;47.002;9.536;2022-09-09T07:08:52;3.75;;;1.30;;
58876;SDS011;44659;47.002;9.536;2022-09-09T07:11:18;7.18;;;1.60;;
58876;SDS011;44659;47.002;9.536;2022-09-09T07:13:44;2.60;;;1.00;;
58876;SDS011;44659;47.002;9.536;2022-09-09T07:16:10;3.20;;;1.10;;
58876;SDS011;44659;47.002;9.536;2022-09-09T07:18:36;3.22;;;1.00;;
58876;SDS011;44659;47.002;9.536;2022-09-09T07:21:02;6.87;;;1.20;;
58876;SDS011;44659;47.002;9.536;2022-09-09T07:23:28;5.50;;;1.42;;
58876;SDS011;44659;47.002;9.536;2022-09-09T07:25:53;4.22;;;1.60;;
58876;SDS011;44659;47.002;9.536;2022-09-09T07:28:19;3.08;;;1.10;;
58876;SDS011;44659;47.002;9.536;2022-09-09T07:30:52;3.25;;;1.17;;
58876;SDS011;44659;47.002;9.536;2022-09-09T07:33:17;3.58;;;1.02;;
58876;SDS011;44659;47.002;9.536;2022-09-09T07:35:44;1.70;;;0.98;;
58876;SDS011;44659;47.002;9.536;2022-09-09T07:38:10;4.10;;;1.20;;
58876;SDS011;44659;47.002;9.536;2022-09-09T07:40:36;7.07;;;1.30;;
58876;SDS011;44659;47.002;9.536;2022-09-09T07:43:01;4.20;;;1.15;;
58876;SDS011;44659;47.002;9.536;2022-09-09T07:45:26;6.33;;;1.17;;
58876;SDS011;44659;47.002;9.536;2022-09-09T07:47:53;5.15;;;1.27;;
58876;SDS011;44659;47.002;9.536;2022-09-09T07:50:18;3.65;;;1.17;;
58876;SDS011;44659;47.002;9.536;2022-09-09T07:52:43;4.70;;;1.15;;
58876;SDS011;44659;47.002;9.536;2022-09-09T07:55:09;3.50;;;0.90;;
58876;SDS011;44659;47.002;9.536;2022-09-09T07:57:34;5.43;;;1.20;;
58876;SDS011;44659;47.002;9.536;2022-09-09T07:59:59;6.07;;;1.10;;
58876;SDS011;44659;47.002;9.536;2022-09-09T08:02:24;3.33;;;1.40;;
58876;SDS011;44659;47.002;9.536;2022-09-09T08:04:52;7.15;;;1.20;;
58876;SDS011;44659;47.002;9.536;2022-09-09T08:07:18;3.23;;;1.30;;
58876;SDS011;44659;47.002;9.536;2022-09-09T08:09:43;4.77;;;1.10;;
58876;SDS011;44659;47.002;9.536;2022-09-09T08:12:08;4.50;;;1.00;;
58876;SDS011;44659;47.002;9.536;2022-09-09T08:14:34;2.60;;;0.85;;
58876;SDS011;44659;47.002;9.536;2022-09-09T08:16:59;3.17;;;0.80;;
58876;SDS011;44659;47.002;9.536;2022-09-09T08:19:25;2.77;;;0.83;;
58876;SDS011;44659;47.002;9.536;2022-09-09T08:21:50;3.70;;;1.00;;
58876;SDS011;44659;47.002;9.536;2022-09-09T08:24:15;8.52;;;0.93;;
58876;SDS011;44659;47.002;9.536;2022-09-09T08:26:42;4.80;;;1.13;;
58876;SDS011;44659;47.002;9.536;2022-09-09T08:29:08;4.25;;;0.98;;
58876;SDS011;44659;47.002;9.536;2022-09-09T08:31:38;5.00;;;0.88;;
58876;SDS011;44659;47.002;9.536;2022-09-09T08:34:03;7.68;;;0.93;;
58876;SDS011;44659;47.002;9.536;2022-09-09T08:36:30;2.22;;;0.77;;
58876;SDS011;44659;47.002;9.536;2022-09-09T08:38:58;2.70;;;1.00;;
58876;SDS011;44659;47.002;9.536;2022-09-09T08:44:13;2.35;;;0.77;;
58876;SDS011;44659;47.002;9.536;2022-09-09T08:52:06;0.98;;;0.40;;
58876;SDS011;44659;47.002;9.536;2022-09-09T08:54:35;2.53;;;0.50;;
58876;SDS011;44659;47.002;9.536;2022-09-09T08:57:01;1.48;;;0.52;;
58876;SDS011;44659;47.002;9.536;2022-09-09T08:59:26;4.35;;;0.50;;
58876;SDS011;44659;47.002;9.536;2022-09-09T09:02:36;4.63;;;0.60;;
58876;SDS011;44659;47.002;9.536;2022-09-09T09:07:21;0.90;;;0.52;;
58876;SDS011;44659;47.002;9.536;2022-09-09T09:15:14;2.55;;;0.90;;
58876;SDS011;44659;47.002;9.536;2022-09-09T09:17:42;1.02;;;0.55;;
58876;SDS011;44659;47.002;9.536;2022-09-09T09:20:11;1.05;;;0.60;;
58876;SDS011;44659;47.002;9.536;2022-09-09T09:22:58;0.98;;;0.50;;
58876;SDS011;44659;47.002;9.536;2022-09-09T09:25:25;1.48;;;0.60;;
58876;SDS011;44659;47.002;9.536;2022-09-09T09:27:59;1.65;;;0.60;;
58876;SDS011;44659;47.002;9.536;2022-09-09T09:30:39;2.28;;;0.60;;
58876;SDS011;44659;47.002;9.536;2022-09-09T09:33:15;1.35;;;0.50;;
58876;SDS011;44659;47.002;9.536;2022-09-09T09:35:41;1.92;;;0.63;;
58876;SDS011;44659;47.002;9.536;2022-09-09T09:40:48;2.22;;;0.60;;
58876;SDS011;44659;47.002;9.536;2022-09-09T09:43:18;1.77;;;0.63;;
58876;SDS011;44659;47.002;9.536;2022-09-09T09:45:45;0.98;;;0.60;;
58876;SDS011;44659;47.002;9.536;2022-09-09T09:48:13;1.98;;;0.80;;
58876;SDS011;44659;47.002;9.536;2022-09-09T09:50:54;1.05;;;0.65;;
58876;SDS011;44659;47.002;9.536;2022-09-09T09:53:24;1.95;;;0.80;;
58876;SDS011;44659;47.002;9.536;2022-09-09T09:55:52;3.45;;;0.82;;
58876;SDS011;44659;47.002;9.536;2022-09-09T09:58:18;3.10;;;0.70;;
58876;SDS011;44659;47.002;9.536;2022-09-09T10:00:47;2.90;;;0.63;;
58876;SDS011;44659;47.002;9.536;2022-09-09T10:03:24;1.98;;;0.63;;
58876;SDS011;44659;47.002;9.536;2022-09-09T10:05:50;2.65;;;0.70;;
58876;SDS011;44659;47.002;9.536;2022-09-09T10:08:16;2.67;;;0.60;;
58876;SDS011;44659;47.002;9.536;2022-09-09T10:13:30;5.40;;;1.92;;
58876;SDS011;44659;47.002;9.536;2022-09-09T10:16:14;2.95;;;1.10;;
58876;SDS011;44659;47.002;9.536;2022-09-09T10:18:54;1.95;;;0.77;;
58876;SDS011;44659;47.002;9.536;2022-09-09T10:24:12;1.00;;;0.70;;
58876;SDS011;44659;47.002;9.536;2022-09-09T10:26:55;1.02;;;0.60;;
58876;SDS011;44659;47.002;9.536;2022-09-09T10:37:08;6.15;;;1.42;;
58876;SDS011;44659;47.002;9.536;2022-09-09T10:39:38;2.63;;;0.90;;
58876;SDS011;44659;47.002;9.536;2022-09-09T10:42:15;1.88;;;0.75;;
58876;SDS011;44659;47.002;9.536;2022-09-09T10:45:25;2.33;;;0.90;;
58876;SDS011;44659;47.002;9.536;2022-09-09T10:47:36;3.15;;;0.70;;
58876;SDS011;44659;47.002;9.536;2022-09-09T10:50:18;2.22;;;1.38;;
58876;SDS011;44659;47.002;9.536;2022-09-09T10:55:17;1.48;;;0.60;;
58876;SDS011;44659;47.002;9.536;2022-09-09T10:57:50;4.72;;;1.20;;
58876;SDS011;44659;47.002;9.536;2022-09-09T11:00:21;3.03;;;0.60;;
58876;SDS011;44659;47.002;9.536;2022-09-09T11:02:56;2.03;;;0.70;;
58876;SDS011;44659;47.002;9.536;2022-09-09T11:05:32;3.92;;;0.68;;
58876;SDS011;44659;47.002;9.536;2022-09-09T11:08:04;2.95;;;0.88;;
58876;SDS011;44659;47.002;9.536;2022-09-09T11:13:01;1.90;;;0.65;;
58876;SDS011;44659;47.002;9.536;2022-09-09T11:15:39;1.27;;;0.68;;
58876;SDS011;44659;47.002;9.536;2022-09-09T11:18:06;1.65;;;0.65;;
58876;SDS011;44659;47.002;9.536;2022-09-09T11:20:34;3.28;;;0.70;;
58876;SDS011;44659;47.002;9.536;2022-09-09T11:23:04;0.88;;;0.47;;
58876;SDS011;44659;47.002;9.536;2022-09-09T11:25:40;0.68;;;0.40;;
58876;SDS011;44659;47.002;9.536;2022-09-09T11:28:24;3.47;;;0.50;;
58876;SDS011;44659;47.002;9.536;2022-09-09T11:38:45;2.70;;;0.55;;
58876;SDS011;44659;47.002;9.536;2022-09-09T11:41:11;1.77;;;0.50;;
58876;SDS011;44659;47.002;9.536;2022-09-09T11:46:03;7.00;;;1.37;;
58876;SDS011;44659;47.002;9.536;2022-09-09T11:48:31;1.85;;;0.50;;
58876;SDS011;44659;47.002;9.536;2022-09-09T11:51:04;1.55;;;0.50;;
58876;SDS011;44659;47.002;9.536;2022-09-09T11:53:30;4.97;;;1.05;;
58876;SDS011;44659;47.002;9.536;2022-09-09T11:56:09;1.85;;;0.60;;
58876;SDS011;44659;47.002;9.536;2022-09-09T11:58:38;5.20;;;0.63;;
58876;SDS011;44659;47.002;9.536;2022-09-09T12:04:00;0.60;;;0.40;;
58876;SDS011;44659;47.002;9.536;2022-09-09T12:06:33;2.72;;;0.40;;
58876;SDS011;44659;47.002;9.536;2022-09-09T12:09:07;0.93;;;0.30;;
58876;SDS011;44659;47.002;9.536;2022-09-09T12:11:33;1.55;;;0.60;;
58876;SDS011;44659;47.002;9.536;2022-09-09T12:13:59;1.17;;;0.47;;
58876;SDS011;44659;47.002;9.536;2022-09-09T12:16:43;2.85;;;0.60;;
58876;SDS011;44659;47.002;9.536;2022-09-09T12:21:36;3.07;;;0.73;;
58876;SDS011;44659;47.002;9.536;2022-09-09T12:24:09;2.50;;;0.60;;
58876;SDS011;44659;47.002;9.536;2022-09-09T12:29:13;3.03;;;0.67;;
58876;SDS011;44659;47.002;9.536;2022-09-09T12:31:42;2.38;;;0.50;;
58876;SDS011;44659;47.002;9.536;2022-09-09T12:34:16;3.35;;;0.65;;
58876;SDS011;44659;47.002;9.536;2022-09-09T12:36:42;2.20;;;0.50;;
58876;SDS011;44659;47.002;9.536;2022-09-09T12:39:15;1.73;;;0.47;;
58876;SDS011;44659;47.002;9.536;2022-09-09T12:41:41;2.25;;;0.47;;
58876;SDS011;44659;47.002;9.536;2022-09-09T12:44:15;4.70;;;0.80;;
58876;SDS011;44659;47.002;9.536;2022-09-09T12:46:41;0.90;;;0.40;;
58876;SDS011;44659;47.002;9.536;2022-09-09T12:51:51;3.47;;;0.55;;
58876;SDS011;44659;47.002;9.536;2022-09-09T12:54:16;1.73;;;0.47;;
58876;SDS011;44659;47.002;9.536;2022-09-09T12:56:44;3.40;;;0.70;;
58876;SDS011;44659;47.002;9.536;2022-09-09T12:59:17;2.17;;;0.82;;
58876;SDS011;44659;47.002;9.536;2022-09-09T13:01:54;3.35;;;0.50;;
58876;SDS011;44659;47.002;9.536;2022-09-09T13:04:20;1.23;;;0.30;;
58876;SDS011;44659;47.002;9.536;2022-09-09T13:06:47;2.67;;;0.55;;
58876;SDS011;44659;47.002;9.536;2022-09-09T13:09:12;0.43;;;0.30;;
58876;SDS011;44659;47.002;9.536;2022-09-09T13:11:50;5.90;;;0.50;;
58876;SDS011;44659;47.002;9.536;2022-09-09T13:14:28;1.75;;;0.38;;
58876;SDS011;44659;47.002;9.536;2022-09-09T13:16:55;3.03;;;0.30;;
58876;SDS011;44659;47.002;9.536;2022-09-09T13:19:20;1.23;;;0.43;;
58876;SDS011;44659;47.002;9.536;2022-09-09T13:21:46;2.20;;;0.50;;
58876;SDS011;44659;47.002;9.536;2022-09-09T13:24:28;4.22;;;0.70;;
58876;SDS011;44659;47.002;9.536;2022-09-09T13:27:04;1.45;;;0.50;;
58876;SDS011;44659;47.002;9.536;2022-09-09T13:29:30;5.07;;;0.63;;
58876;SDS011;44659;47.002;9.536;2022-09-09T13:32:05;3.00;;;0.68;;
58876;SDS011;44659;47.002;9.536;2022-09-09T13:34:32;0.65;;;0.38;;
58876;SDS011;44659;47.002;9.536;2022-09-09T13:37:01;2.53;;;0.32;;
58876;SDS011;44659;47.002;9.536;2022-09-09T13:39:27;1.58;;;0.40;;
58876;SDS011;44659;47.002;9.536;2022-09-09T13:41:52;1.13;;;0.50;;
58876;SDS011;44659;47.002;9.536;2022-09-09T13:44:25;2.42;;;0.43;;
58876;SDS011;44659;47.002;9.536;2022-09-09T13:49:27;3.97;;;0.60;;
58876;SDS011;44659;47.002;9.536;2022-09-09T13:52:02;1.52;;;0.57;;
58876;SDS011;44659;47.002;9.536;2022-09-09T13:56:53;3.03;;;0.52;;
58876;SDS011;44659;47.002;9.536;2022-09-09T13:59:20;2.33;;;0.45;;
58876;SDS011;44659;47.002;9.536;2022-09-09T14:01:45;1.13;;;0.40;;
58876;SDS011;44659;47.002;9.536;2022-09-09T14:04:10;5.38;;;0.55;;
58876;SDS011;44659;47.002;9.536;2022-09-09T14:06:36;4.85;;;0.50;;
58876;SDS011;44659;47.002;9.536;2022-09-09T14:09:03;1.15;;;0.60;;
58876;SDS011;44659;47.002;9.536;2022-09-09T14:11:28;4.40;;;0.40;;
58876;SDS011;44659;47.002;9.536;2022-09-09T14:13:53;2.10;;;0.30;;
58876;SDS011;44659;47.002;9.536;2022-09-09T14:16:19;0.83;;;0.30;;
58876;SDS011;44659;47.002;9.536;2022-09-09T14:18:45;5.50;;;0.98;;
58876;SDS011;44659;47.002;9.536;2022-09-09T14:21:10;1.50;;;0.40;;
58876;SDS011;44659;47.002;9.536;2022-09-09T14:23:36;0.28;;;0.28;;
58876;SDS011;44659;47.002;9.536;2022-09-09T14:26:03;2.35;;;0.38;;
58876;SDS011;44659;47.002;9.536;2022-09-09T14:28:28;1.73;;;0.57;;
58876;SDS011;44659;47.002;9.536;2022-09-09T14:30:54;0.98;;;0.40;;
58876;SDS011;44659;47.002;9.536;2022-09-09T14:33:19;1.80;;;0.40;;
58876;SDS011;44659;47.002;9.536;2022-09-09T14:35:44;1.47;;;0.40;;
58876;SDS011;44659;47.002;9.536;2022-09-09T14:38:10;1.60;;;0.40;;
58876;SDS011;44659;47.002;9.536;2022-09-09T14:40:35;0.82;;;0.30;;
58876;SDS011;44659;47.002;9.536;2022-09-09T14:43:01;1.42;;;0.40;;
58876;SDS011;44659;47.002;9.536;2022-09-09T14:45:27;1.98;;;0.50;;
58876;SDS011;44659;47.002;9.536;2022-09-09T14:47:52;2.45;;;0.52;;
58876;SDS011;44659;47.002;9.536;2022-09-09T14:50:18;4.53;;;0.50;;
58876;SDS011;44659;47.002;9.536;2022-09-09T14:52:43;0.85;;;0.50;;
58876;SDS011;44659;47.002;9.536;2022-09-09T14:55:09;1.48;;;0.50;;
58876;SDS011;44659;47.002;9.536;2022-09-09T14:57:34;2.20;;;0.60;;
58876;SDS011;44659;47.002;9.536;2022-09-09T15:00:00;0.85;;;0.30;;
58876;SDS011;44659;47.002;9.536;2022-09-09T15:02:34;0.80;;;0.40;;
58876;SDS011;44659;47.002;9.536;2022-09-09T15:04:59;2.10;;;0.50;;
58876;SDS011;44659;47.002;9.536;2022-09-09T15:07:38;1.88;;;0.47;;
58876;SDS011;44659;47.002;9.536;2022-09-09T15:10:03;2.72;;;0.70;;
58876;SDS011;44659;47.002;9.536;2022-09-09T15:12:39;1.33;;;0.40;;
58876;SDS011;44659;47.002;9.536;2022-09-09T15:15:06;3.72;;;0.60;;
58876;SDS011;44659;47.002;9.536;2022-09-09T15:17:32;1.65;;;0.43;;
58876;SDS011;44659;47.002;9.536;2022-09-09T15:19:57;2.35;;;0.45;;
58876;SDS011;44659;47.002;9.536;2022-09-09T15:22:22;2.37;;;0.60;;
58876;SDS011;44659;47.002;9.536;2022-09-09T15:24:49;1.48;;;0.60;;
58876;SDS011;44659;47.002;9.536;2022-09-09T15:30:01;3.90;;;0.68;;
58876;SDS011;44659;47.002;9.536;2022-09-09T15:32:27;6.13;;;1.73;;
58876;SDS011;44659;47.002;9.536;2022-09-09T15:34:52;1.42;;;0.52;;
58876;SDS011;44659;47.002;9.536;2022-09-09T15:37:18;2.03;;;0.57;;
58876;SDS011;44659;47.002;9.536;2022-09-09T15:39:43;1.07;;;0.40;;
58876;SDS011;44659;47.002;9.536;2022-09-09T15:42:09;1.50;;;0.55;;
58876;SDS011;44659;47.002;9.536;2022-09-09T15:44:38;4.45;;;0.55;;
58876;SDS011;44659;47.002;9.536;2022-09-09T15:47:03;2.65;;;0.65;;
58876;SDS011;44659;47.002;9.536;2022-09-09T15:49:28;4.10;;;1.13;;
58876;SDS011;44659;47.002;9.536;2022-09-09T15:51:57;2.57;;;0.67;;
58876;SDS011;44659;47.002;9.536;2022-09-09T15:54:23;3.28;;;0.80;;
58876;SDS011;44659;47.002;9.536;2022-09-09T15:56:53;2.70;;;0.60;;
58876;SDS011;44659;47.002;9.536;2022-09-09T15:59:20;5.20;;;1.02;;
58876;SDS011;44659;47.002;9.536;2022-09-09T16:01:46;2.05;;;0.70;;
58876;SDS011;44659;47.002;9.536;2022-09-09T16:10:00;1.45;;;0.40;;
58876;SDS011;44659;47.002;9.536;2022-09-09T16:12:28;1.15;;;0.60;;
58876;SDS011;44659;47.002;9.536;2022-09-09T16:14:56;0.80;;;0.50;;
58876;SDS011;44659;47.002;9.536;2022-09-09T16:17:21;3.10;;;0.60;;
58876;SDS011;44659;47.002;9.536;2022-09-09T16:19:49;2.47;;;0.50;;
58876;SDS011;44659;47.002;9.536;2022-09-09T16:22:14;2.53;;;1.13;;
58876;SDS011;44659;47.002;9.536;2022-09-09T16:24:40;5.15;;;2.30;;
58876;SDS011;44659;47.002;9.536;2022-09-09T16:27:05;2.38;;;0.60;;
58876;SDS011;44659;47.002;9.536;2022-09-09T16:29:31;3.38;;;0.88;;
58876;SDS011;44659;47.002;9.536;2022-09-09T16:31:57;3.13;;;1.33;;
58876;SDS011;44659;47.002;9.536;2022-09-09T16:34:22;4.93;;;1.00;;
58876;SDS011;44659;47.002;9.536;2022-09-09T16:36:47;2.03;;;1.00;;
58876;SDS011;44659;47.002;9.536;2022-09-09T16:39:14;3.70;;;0.82;;
58876;SDS011;44659;47.002;9.536;2022-09-09T16:41:40;5.28;;;1.10;;
58876;SDS011;44659;47.002;9.536;2022-09-09T16:44:06;6.90;;;2.25;;
58876;SDS011;44659;47.002;9.536;2022-09-09T16:46:33;6.05;;;1.75;;
58876;SDS011;44659;47.002;9.536;2022-09-09T16:48:59;5.90;;;2.22;;
58876;SDS011;44659;47.002;9.536;2022-09-09T16:51:26;3.83;;;1.10;;
58876;SDS011;44659;47.002;9.536;2022-09-09T16:53:52;2.53;;;0.98;;
58876;SDS011;44659;47.002;9.536;2022-09-09T16:56:19;4.78;;;1.17;;
58876;SDS011;44659;47.002;9.536;2022-09-09T16:58:48;3.35;;;1.15;;
58876;SDS011;44659;47.002;9.536;2022-09-09T17:01:15;3.72;;;1.30;;
58876;SDS011;44659;47.002;9.536;2022-09-09T17:03:40;1.90;;;0.97;;
58876;SDS011;44659;47.002;9.536;2022-09-09T17:06:09;6.57;;;1.00;;
58876;SDS011;44659;47.002;9.536;2022-09-09T17:08:34;3.70;;;0.98;;
58876;SDS011;44659;47.002;9.536;2022-09-09T17:10:59;3.60;;;1.10;;
58876;SDS011;44659;47.002;9.536;2022-09-09T17:13:25;3.03;;;0.70;;